sensor_id;sensor_type;location;lat;lon;timestamp;temperature;humidity
78731;SHT31;68055;51.978;5.658;2023-05-09T00:01:21;20.4;60.5
78731;SHT31;68055;51.978;5.658;2023-05-09T00:03:51;20.3;60.8
78731;SHT31;68055;51.978;5.658;2023-05-09T00:06:21;20.3;60.8
78731;SHT31;68055;51.978;5.658;2023-05-09T00:08:50;20.3;61.1
78731;SHT31;68055;51.978;5.658;2023-05-09T00:11:21;20.3;60.7
78731;SHT31;68055;51.978;5.658;2023-05-09T00:13:50;20.3;61.3
78731;SHT31;68055;51.978;5.658;2023-05-09T00:16:20;20.2;61.1
78731;SHT31;68055;51.978;5.658;2023-05-09T00:18:54;20.2;61.1
78731;SHT31;68055;51.978;5.658;2023-05-09T00:21:24;20.2;61.3
78731;SHT31;68055;51.978;5.658;2023-05-09T00:23:54;20.2;61.1
78731;SHT31;68055;51.978;5.658;2023-05-09T00:26:25;20.2;60.9
78731;SHT31;68055;51.978;5.658;2023-05-09T00:28:55;20.2;61.1
78731;SHT31;68055;51.978;5.658;2023-05-09T00:31:26;20.1;61.1
78731;SHT31;68055;51.978;5.658;2023-05-09T00:33:56;20.1;61.2
78731;SHT31;68055;51.978;5.658;2023-05-09T00:36:26;20.1;61.7
78731;SHT31;68055;51.978;5.658;2023-05-09T00:38:55;20.1;61.9
78731;SHT31;68055;51.978;5.658;2023-05-09T00:41:25;20.1;61.6
78731;SHT31;68055;51.978;5.658;2023-05-09T00:43:54;20.1;62.1
78731;SHT31;68055;51.978;5.658;2023-05-09T00:46:24;20.1;61.9
78731;SHT31;68055;51.978;5.658;2023-05-09T00:48:54;20.1;61.7
78731;SHT31;68055;51.978;5.658;2023-05-09T00:51:24;20.1;61.3
78731;SHT31;68055;51.978;5.658;2023-05-09T00:53:54;20.0;61.3
78731;SHT31;68055;51.978;5.658;2023-05-09T00:56:24;20.0;61.6
78731;SHT31;68055;51.978;5.658;2023-05-09T00:58:54;20.0;61.6
78731;SHT31;68055;51.978;5.658;2023-05-09T01:01:24;20.0;62.1
78731;SHT31;68055;51.978;5.658;2023-05-09T01:03:54;20.0;61.8
78731;SHT31;68055;51.978;5.658;2023-05-09T01:06:35;20.0;61.7
78731;SHT31;68055;51.978;5.658;2023-05-09T01:09:25;20.0;62.2
78731;SHT31;68055;51.978;5.658;2023-05-09T01:12:00;20.0;62.2
78731;SHT31;68055;51.978;5.658;2023-05-09T01:14:41;20.0;62.2
78731;SHT31;68055;51.978;5.658;2023-05-09T01:17:21;20.0;62.1
78731;SHT31;68055;51.978;5.658;2023-05-09T01:20:03;20.0;62.2
78731;SHT31;68055;51.978;5.658;2023-05-09T01:22:44;20.0;61.6
78731;SHT31;68055;51.978;5.658;2023-05-09T01:25:37;20.0;62.5
78731;SHT31;68055;51.978;5.658;2023-05-09T01:28:22;20.0;62.1
78731;SHT31;68055;51.978;5.658;2023-05-09T01:30:54;20.0;62.4
78731;SHT31;68055;51.978;5.658;2023-05-09T01:33:26;20.0;61.9
78731;SHT31;68055;51.978;5.658;2023-05-09T01:36:02;20.0;62.0
78731;SHT31;68055;51.978;5.658;2023-05-09T01:38:36;20.0;62.4
78731;SHT31;68055;51.978;5.658;2023-05-09T01:41:09;20.0;62.5
78731;SHT31;68055;51.978;5.658;2023-05-09T01:43:41;20.0;61.9
78731;SHT31;68055;51.978;5.658;2023-05-09T01:46:12;20.0;62.0
78731;SHT31;68055;51.978;5.658;2023-05-09T01:48:45;20.0;62.4
78731;SHT31;68055;51.978;5.658;2023-05-09T01:51:18;20.0;62.7
78731;SHT31;68055;51.978;5.658;2023-05-09T01:53:50;20.0;62.2
78731;SHT31;68055;51.978;5.658;2023-05-09T01:56:21;20.0;62.1
78731;SHT31;68055;51.978;5.658;2023-05-09T01:58:56;19.9;62.1
78731;SHT31;68055;51.978;5.658;2023-05-09T02:01:28;19.9;62.5
78731;SHT31;68055;51.978;5.658;2023-05-09T02:04:00;19.9;62.5
78731;SHT31;68055;51.978;5.658;2023-05-09T02:06:32;19.9;62.6
78731;SHT31;68055;51.978;5.658;2023-05-09T02:09:02;19.9;62.5
78731;SHT31;68055;51.978;5.658;2023-05-09T02:11:33;19.9;61.8
78731;SHT31;68055;51.978;5.658;2023-05-09T02:14:02;19.9;62.8
78731;SHT31;68055;51.978;5.658;2023-05-09T02:16:34;19.9;62.8
78731;SHT31;68055;51.978;5.658;2023-05-09T02:19:06;19.8;62.2
78731;SHT31;68055;51.978;5.658;2023-05-09T02:21:35;19.8;62.7
78731;SHT31;68055;51.978;5.658;2023-05-09T02:24:08;19.8;62.0
78731;SHT31;68055;51.978;5.658;2023-05-09T02:26:41;19.8;62.6
78731;SHT31;68055;51.978;5.658;2023-05-09T02:29:11;19.8;62.5
78731;SHT31;68055;51.978;5.658;2023-05-09T02:31:43;19.8;62.4
78731;SHT31;68055;51.978;5.658;2023-05-09T02:34:15;19.7;62.5
78731;SHT31;68055;51.978;5.658;2023-05-09T02:36:45;19.7;62.6
78731;SHT31;68055;51.978;5.658;2023-05-09T02:39:15;19.7;62.5
78731;SHT31;68055;51.978;5.658;2023-05-09T02:41:49;19.7;62.8
78731;SHT31;68055;51.978;5.658;2023-05-09T02:44:18;19.7;62.5
78731;SHT31;68055;51.978;5.658;2023-05-09T02:46:48;19.6;62.5
78731;SHT31;68055;51.978;5.658;2023-05-09T02:49:17;19.6;62.3
78731;SHT31;68055;51.978;5.658;2023-05-09T02:51:47;19.6;62.8
78731;SHT31;68055;51.978;5.658;2023-05-09T02:54:17;19.6;62.3
78731;SHT31;68055;51.978;5.658;2023-05-09T02:56:46;19.6;62.3
78731;SHT31;68055;51.978;5.658;2023-05-09T02:59:17;19.6;62.4
78731;SHT31;68055;51.978;5.658;2023-05-09T03:01:48;19.6;62.5
78731;SHT31;68055;51.978;5.658;2023-05-09T03:04:20;19.6;62.2
78731;SHT31;68055;51.978;5.658;2023-05-09T03:06:50;19.6;62.1
78731;SHT31;68055;51.978;5.658;2023-05-09T03:09:19;19.6;62.2
78731;SHT31;68055;51.978;5.658;2023-05-09T03:11:49;19.6;62.2
78731;SHT31;68055;51.978;5.658;2023-05-09T03:14:19;19.5;62.2
78731;SHT31;68055;51.978;5.658;2023-05-09T03:16:49;19.5;61.5
78731;SHT31;68055;51.978;5.658;2023-05-09T03:19:18;19.5;61.6
78731;SHT31;68055;51.978;5.658;2023-05-09T03:21:48;19.5;61.8
78731;SHT31;68055;51.978;5.658;2023-05-09T03:24:17;19.5;62.1
78731;SHT31;68055;51.978;5.658;2023-05-09T03:26:47;19.5;62.3
78731;SHT31;68055;51.978;5.658;2023-05-09T03:29:17;19.5;62.2
78731;SHT31;68055;51.978;5.658;2023-05-09T03:31:46;19.5;62.2
78731;SHT31;68055;51.978;5.658;2023-05-09T03:34:16;19.5;62.1
78731;SHT31;68055;51.978;5.658;2023-05-09T03:36:46;19.5;61.9
78731;SHT31;68055;51.978;5.658;2023-05-09T03:39:15;19.5;61.9
78731;SHT31;68055;51.978;5.658;2023-05-09T03:41:45;19.5;61.3
78731;SHT31;68055;51.978;5.658;2023-05-09T03:44:17;19.5;62.2
78731;SHT31;68055;51.978;5.658;2023-05-09T03:46:47;19.4;61.8
78731;SHT31;68055;51.978;5.658;2023-05-09T03:49:16;19.4;61.0
78731;SHT31;68055;51.978;5.658;2023-05-09T03:51:47;19.4;61.6
78731;SHT31;68055;51.978;5.658;2023-05-09T03:54:17;19.4;62.1
78731;SHT31;68055;51.978;5.658;2023-05-09T03:56:46;19.4;61.8
78731;SHT31;68055;51.978;5.658;2023-05-09T03:59:16;19.3;62.3
78731;SHT31;68055;51.978;5.658;2023-05-09T04:01:45;19.3;62.0
78731;SHT31;68055;51.978;5.658;2023-05-09T04:04:15;19.3;62.1
78731;SHT31;68055;51.978;5.658;2023-05-09T04:06:45;19.2;62.2
78731;SHT31;68055;51.978;5.658;2023-05-09T04:09:15;19.2;61.2
78731;SHT31;68055;51.978;5.658;2023-05-09T04:11:44;19.2;61.6
78731;SHT31;68055;51.978;5.658;2023-05-09T04:14:15;19.1;61.9
78731;SHT31;68055;51.978;5.658;2023-05-09T04:16:45;19.1;62.5
78731;SHT31;68055;51.978;5.658;2023-05-09T04:19:14;19.1;62.4
78731;SHT31;68055;51.978;5.658;2023-05-09T04:21:46;19.1;62.8
78731;SHT31;68055;51.978;5.658;2023-05-09T04:24:15;19.1;62.7
78731;SHT31;68055;51.978;5.658;2023-05-09T04:26:45;19.0;63.2
78731;SHT31;68055;51.978;5.658;2023-05-09T04:29:15;19.0;62.9
78731;SHT31;68055;51.978;5.658;2023-05-09T04:31:44;19.0;62.5
78731;SHT31;68055;51.978;5.658;2023-05-09T04:34:14;19.0;62.8
78731;SHT31;68055;51.978;5.658;2023-05-09T04:36:45;19.0;63.2
78731;SHT31;68055;51.978;5.658;2023-05-09T04:39:15;19.0;62.7
78731;SHT31;68055;51.978;5.658;2023-05-09T04:41:46;19.0;63.7
78731;SHT31;68055;51.978;5.658;2023-05-09T04:44:16;19.0;63.1
78731;SHT31;68055;51.978;5.658;2023-05-09T04:46:46;19.0;63.1
78731;SHT31;68055;51.978;5.658;2023-05-09T04:49:16;19.0;63.1
78731;SHT31;68055;51.978;5.658;2023-05-09T04:51:46;19.0;63.1
78731;SHT31;68055;51.978;5.658;2023-05-09T04:54:16;19.0;63.3
78731;SHT31;68055;51.978;5.658;2023-05-09T04:56:45;19.0;63.8
78731;SHT31;68055;51.978;5.658;2023-05-09T04:59:15;19.0;64.1
78731;SHT31;68055;51.978;5.658;2023-05-09T05:01:45;19.0;62.9
78731;SHT31;68055;51.978;5.658;2023-05-09T05:04:14;19.0;63.2
78731;SHT31;68055;51.978;5.658;2023-05-09T05:06:44;19.0;63.7
78731;SHT31;68055;51.978;5.658;2023-05-09T05:09:14;19.0;63.8
78731;SHT31;68055;51.978;5.658;2023-05-09T05:11:43;19.0;63.2
78731;SHT31;68055;51.978;5.658;2023-05-09T05:14:13;19.0;63.1
78731;SHT31;68055;51.978;5.658;2023-05-09T05:16:43;19.1;63.7
78731;SHT31;68055;51.978;5.658;2023-05-09T05:19:12;19.1;63.9
78731;SHT31;68055;51.978;5.658;2023-05-09T05:21:42;19.1;64.1
78731;SHT31;68055;51.978;5.658;2023-05-09T05:24:11;19.1;63.4
78731;SHT31;68055;51.978;5.658;2023-05-09T05:26:41;19.1;63.2
78731;SHT31;68055;51.978;5.658;2023-05-09T05:29:11;19.2;63.6
78731;SHT31;68055;51.978;5.658;2023-05-09T05:31:41;19.2;63.8
78731;SHT31;68055;51.978;5.658;2023-05-09T05:34:11;19.2;63.1
78731;SHT31;68055;51.978;5.658;2023-05-09T05:36:42;19.3;62.9
78731;SHT31;68055;51.978;5.658;2023-05-09T05:39:12;19.3;63.0
78731;SHT31;68055;51.978;5.658;2023-05-09T05:41:42;19.3;62.6
78731;SHT31;68055;51.978;5.658;2023-05-09T05:44:12;19.3;62.6
78731;SHT31;68055;51.978;5.658;2023-05-09T05:46:41;19.3;62.7
78731;SHT31;68055;51.978;5.658;2023-05-09T05:49:11;19.4;62.0
78731;SHT31;68055;51.978;5.658;2023-05-09T05:51:41;19.4;62.0
78731;SHT31;68055;51.978;5.658;2023-05-09T05:54:10;19.4;62.1
78731;SHT31;68055;51.978;5.658;2023-05-09T05:56:40;19.4;62.2
78731;SHT31;68055;51.978;5.658;2023-05-09T05:59:09;19.5;61.6
78731;SHT31;68055;51.978;5.658;2023-05-09T06:01:39;19.5;61.8
78731;SHT31;68055;51.978;5.658;2023-05-09T06:04:09;19.5;61.3
78731;SHT31;68055;51.978;5.658;2023-05-09T06:06:38;19.6;60.6
78731;SHT31;68055;51.978;5.658;2023-05-09T06:09:08;19.6;61.0
78731;SHT31;68055;51.978;5.658;2023-05-09T06:11:39;19.6;61.1
78731;SHT31;68055;51.978;5.658;2023-05-09T06:14:09;19.6;60.9
78731;SHT31;68055;51.978;5.658;2023-05-09T06:16:39;19.6;60.8
78731;SHT31;68055;51.978;5.658;2023-05-09T06:19:09;19.7;60.7
78731;SHT31;68055;51.978;5.658;2023-05-09T06:21:38;19.7;60.8
78731;SHT31;68055;51.978;5.658;2023-05-09T06:24:08;19.7;61.1
78731;SHT31;68055;51.978;5.658;2023-05-09T06:26:38;19.8;60.9
78731;SHT31;68055;51.978;5.658;2023-05-09T06:29:08;19.8;61.0
78731;SHT31;68055;51.978;5.658;2023-05-09T06:31:38;19.9;60.5
78731;SHT31;68055;51.978;5.658;2023-05-09T06:34:07;19.9;60.3
78731;SHT31;68055;51.978;5.658;2023-05-09T06:36:39;20.0;60.7
78731;SHT31;68055;51.978;5.658;2023-05-09T06:39:09;20.1;60.5
78731;SHT31;68055;51.978;5.658;2023-05-09T06:41:38;20.2;59.5
78731;SHT31;68055;51.978;5.658;2023-05-09T06:44:08;20.3;59.0
78731;SHT31;68055;51.978;5.658;2023-05-09T06:46:37;20.3;58.8
78731;SHT31;68055;51.978;5.658;2023-05-09T06:49:07;20.4;58.6
78731;SHT31;68055;51.978;5.658;2023-05-09T06:51:37;20.4;58.0
78731;SHT31;68055;51.978;5.658;2023-05-09T06:54:07;20.5;58.2
78731;SHT31;68055;51.978;5.658;2023-05-09T06:56:39;20.5;57.8
78731;SHT31;68055;51.978;5.658;2023-05-09T06:59:09;20.6;57.4
78731;SHT31;68055;51.978;5.658;2023-05-09T07:01:39;20.6;57.2
78731;SHT31;68055;51.978;5.658;2023-05-09T07:04:09;20.6;57.2
78731;SHT31;68055;51.978;5.658;2023-05-09T07:06:39;20.6;57.5
78731;SHT31;68055;51.978;5.658;2023-05-09T07:09:09;20.6;57.5
78731;SHT31;68055;51.978;5.658;2023-05-09T07:11:41;20.6;57.8
78731;SHT31;68055;51.978;5.658;2023-05-09T07:14:12;20.6;57.4
78731;SHT31;68055;51.978;5.658;2023-05-09T07:16:42;20.6;57.6
78731;SHT31;68055;51.978;5.658;2023-05-09T07:19:12;20.7;57.3
78731;SHT31;68055;51.978;5.658;2023-05-09T07:21:42;20.7;57.5
78731;SHT31;68055;51.978;5.658;2023-05-09T07:24:12;20.7;57.3
78731;SHT31;68055;51.978;5.658;2023-05-09T07:26:42;20.7;57.2
78731;SHT31;68055;51.978;5.658;2023-05-09T07:29:13;20.7;57.4
78731;SHT31;68055;51.978;5.658;2023-05-09T07:31:44;20.7;57.5
78731;SHT31;68055;51.978;5.658;2023-05-09T07:34:15;20.7;57.5
78731;SHT31;68055;51.978;5.658;2023-05-09T07:36:46;20.7;57.7
78731;SHT31;68055;51.978;5.658;2023-05-09T07:39:15;20.7;58.0
78731;SHT31;68055;51.978;5.658;2023-05-09T07:41:45;20.7;57.8
78731;SHT31;68055;51.978;5.658;2023-05-09T07:44:15;20.8;57.8
78731;SHT31;68055;51.978;5.658;2023-05-09T07:46:44;20.8;57.6
78731;SHT31;68055;51.978;5.658;2023-05-09T07:49:14;20.8;57.6
78731;SHT31;68055;51.978;5.658;2023-05-09T07:51:44;20.8;57.7
78731;SHT31;68055;51.978;5.658;2023-05-09T07:54:13;20.9;57.5
78731;SHT31;68055;51.978;5.658;2023-05-09T07:56:43;20.9;57.4
78731;SHT31;68055;51.978;5.658;2023-05-09T07:59:12;21.0;58.0
78731;SHT31;68055;51.978;5.658;2023-05-09T08:01:43;21.0;57.7
78731;SHT31;68055;51.978;5.658;2023-05-09T08:04:13;21.1;57.3
78731;SHT31;68055;51.978;5.658;2023-05-09T08:06:42;21.1;57.2
78731;SHT31;68055;51.978;5.658;2023-05-09T08:09:12;21.2;57.0
78731;SHT31;68055;51.978;5.658;2023-05-09T08:11:44;21.2;56.3
78731;SHT31;68055;51.978;5.658;2023-05-09T08:14:13;21.2;56.3
78731;SHT31;68055;51.978;5.658;2023-05-09T08:16:43;21.2;56.4
78731;SHT31;68055;51.978;5.658;2023-05-09T08:19:13;21.2;56.2
78731;SHT31;68055;51.978;5.658;2023-05-09T08:21:43;21.2;56.7
78731;SHT31;68055;51.978;5.658;2023-05-09T08:24:13;21.2;56.6
78731;SHT31;68055;51.978;5.658;2023-05-09T08:26:42;21.2;56.5
78731;SHT31;68055;51.978;5.658;2023-05-09T08:29:12;21.2;56.7
78731;SHT31;68055;51.978;5.658;2023-05-09T08:31:42;21.2;56.5
78731;SHT31;68055;51.978;5.658;2023-05-09T08:34:12;21.1;56.0
78731;SHT31;68055;51.978;5.658;2023-05-09T08:36:42;21.1;56.4
78731;SHT31;68055;51.978;5.658;2023-05-09T08:39:13;21.1;56.2
78731;SHT31;68055;51.978;5.658;2023-05-09T08:41:43;21.0;56.5
78731;SHT31;68055;51.978;5.658;2023-05-09T08:44:13;21.0;56.8
78731;SHT31;68055;51.978;5.658;2023-05-09T08:46:43;21.0;57.0
78731;SHT31;68055;51.978;5.658;2023-05-09T08:49:16;20.9;57.4
78731;SHT31;68055;51.978;5.658;2023-05-09T08:51:47;20.9;57.7
78731;SHT31;68055;51.978;5.658;2023-05-09T08:54:17;20.9;57.7
78731;SHT31;68055;51.978;5.658;2023-05-09T08:56:47;20.9;58.4
78731;SHT31;68055;51.978;5.658;2023-05-09T08:59:17;20.8;58.6
78731;SHT31;68055;51.978;5.658;2023-05-09T09:01:47;20.8;58.2
78731;SHT31;68055;51.978;5.658;2023-05-09T09:04:17;20.8;58.7
78731;SHT31;68055;51.978;5.658;2023-05-09T09:06:47;20.8;58.5
78731;SHT31;68055;51.978;5.658;2023-05-09T09:09:18;20.8;58.5
78731;SHT31;68055;51.978;5.658;2023-05-09T09:11:48;20.8;58.5
78731;SHT31;68055;51.978;5.658;2023-05-09T09:14:23;20.8;58.8
78731;SHT31;68055;51.978;5.658;2023-05-09T09:16:55;20.8;58.6
78731;SHT31;68055;51.978;5.658;2023-05-09T09:19:29;20.8;58.6
78731;SHT31;68055;51.978;5.658;2023-05-09T09:22:03;20.8;58.9
78731;SHT31;68055;51.978;5.658;2023-05-09T09:24:33;20.8;59.2
78731;SHT31;68055;51.978;5.658;2023-05-09T09:27:06;20.8;59.5
78731;SHT31;68055;51.978;5.658;2023-05-09T09:29:36;20.8;59.8
78731;SHT31;68055;51.978;5.658;2023-05-09T09:32:07;20.9;60.0
78731;SHT31;68055;51.978;5.658;2023-05-09T09:34:38;20.9;59.3
78731;SHT31;68055;51.978;5.658;2023-05-09T09:37:10;20.9;58.1
78731;SHT31;68055;51.978;5.658;2023-05-09T09:39:55;20.9;58.4
78731;SHT31;68055;51.978;5.658;2023-05-09T09:42:27;20.9;58.9
78731;SHT31;68055;51.978;5.658;2023-05-09T09:45:03;20.9;59.3
78731;SHT31;68055;51.978;5.658;2023-05-09T09:47:38;20.8;60.8
78731;SHT31;68055;51.978;5.658;2023-05-09T09:50:13;20.8;60.6
78731;SHT31;68055;51.978;5.658;2023-05-09T09:52:43;20.8;62.1
78731;SHT31;68055;51.978;5.658;2023-05-09T09:55:19;20.8;61.0
78731;SHT31;68055;51.978;5.658;2023-05-09T09:57:50;20.7;60.8
78731;SHT31;68055;51.978;5.658;2023-05-09T10:00:25;20.7;61.6
78731;SHT31;68055;51.978;5.658;2023-05-09T10:02:58;20.7;60.3
78731;SHT31;68055;51.978;5.658;2023-05-09T10:05:29;20.6;61.2
78731;SHT31;68055;51.978;5.658;2023-05-09T10:08:02;20.6;61.1
78731;SHT31;68055;51.978;5.658;2023-05-09T10:10:35;20.5;61.5
78731;SHT31;68055;51.978;5.658;2023-05-09T10:13:07;20.5;61.3
78731;SHT31;68055;51.978;5.658;2023-05-09T10:15:40;20.5;61.2
78731;SHT31;68055;51.978;5.658;2023-05-09T10:18:12;20.4;62.1
78731;SHT31;68055;51.978;5.658;2023-05-09T10:20:46;20.4;61.6
78731;SHT31;68055;51.978;5.658;2023-05-09T10:23:17;20.3;62.1
78731;SHT31;68055;51.978;5.658;2023-05-09T10:25:57;20.2;63.5
78731;SHT31;68055;51.978;5.658;2023-05-09T10:28:31;20.1;63.2
78731;SHT31;68055;51.978;5.658;2023-05-09T10:31:05;20.0;64.0
78731;SHT31;68055;51.978;5.658;2023-05-09T10:33:40;19.8;65.4
78731;SHT31;68055;51.978;5.658;2023-05-09T10:36:12;19.7;64.8
78731;SHT31;68055;51.978;5.658;2023-05-09T10:38:44;19.6;64.5
78731;SHT31;68055;51.978;5.658;2023-05-09T10:41:15;19.5;66.5
78731;SHT31;68055;51.978;5.658;2023-05-09T10:43:46;19.4;65.3
78731;SHT31;68055;51.978;5.658;2023-05-09T10:46:16;19.3;66.3
78731;SHT31;68055;51.978;5.658;2023-05-09T10:48:46;19.2;66.8
78731;SHT31;68055;51.978;5.658;2023-05-09T10:51:17;19.1;66.4
78731;SHT31;68055;51.978;5.658;2023-05-09T10:53:48;19.0;66.8
78731;SHT31;68055;51.978;5.658;2023-05-09T10:56:29;18.9;67.5
78731;SHT31;68055;51.978;5.658;2023-05-09T10:59:00;18.8;68.3
78731;SHT31;68055;51.978;5.658;2023-05-09T11:01:32;18.7;68.4
78731;SHT31;68055;51.978;5.658;2023-05-09T11:04:08;18.6;69.2
78731;SHT31;68055;51.978;5.658;2023-05-09T11:06:49;18.6;70.3
78731;SHT31;68055;51.978;5.658;2023-05-09T11:09:27;18.5;70.2
78731;SHT31;68055;51.978;5.658;2023-05-09T11:12:06;18.5;70.4
78731;SHT31;68055;51.978;5.658;2023-05-09T11:14:40;18.4;70.8
78731;SHT31;68055;51.978;5.658;2023-05-09T11:17:12;18.4;71.2
78731;SHT31;68055;51.978;5.658;2023-05-09T11:20:04;18.4;70.8
78731;SHT31;68055;51.978;5.658;2023-05-09T11:22:39;18.4;72.2
78731;SHT31;68055;51.978;5.658;2023-05-09T11:25:11;18.4;70.9
78731;SHT31;68055;51.978;5.658;2023-05-09T11:27:43;18.3;71.0
78731;SHT31;68055;51.978;5.658;2023-05-09T11:30:15;18.3;71.4
78731;SHT31;68055;51.978;5.658;2023-05-09T11:32:48;18.3;71.9
78731;SHT31;68055;51.978;5.658;2023-05-09T11:35:21;18.3;73.9
78731;SHT31;68055;51.978;5.658;2023-05-09T11:38:00;18.3;73.0
78731;SHT31;68055;51.978;5.658;2023-05-09T11:40:31;18.3;72.7
78731;SHT31;68055;51.978;5.658;2023-05-09T11:43:01;18.3;73.1
78731;SHT31;68055;51.978;5.658;2023-05-09T11:45:32;18.3;72.8
78731;SHT31;68055;51.978;5.658;2023-05-09T11:48:08;18.3;72.2
78731;SHT31;68055;51.978;5.658;2023-05-09T11:50:38;18.3;72.3
78731;SHT31;68055;51.978;5.658;2023-05-09T11:53:11;18.3;73.3
78731;SHT31;68055;51.978;5.658;2023-05-09T11:55:41;18.3;73.2
78731;SHT31;68055;51.978;5.658;2023-05-09T11:58:12;18.3;74.8
78731;SHT31;68055;51.978;5.658;2023-05-09T12:00:45;18.3;73.2
78731;SHT31;68055;51.978;5.658;2023-05-09T12:03:15;18.3;73.6
78731;SHT31;68055;51.978;5.658;2023-05-09T12:05:46;18.3;73.0
78731;SHT31;68055;51.978;5.658;2023-05-09T12:08:19;18.3;73.5
78731;SHT31;68055;51.978;5.658;2023-05-09T12:10:49;18.4;74.4
78731;SHT31;68055;51.978;5.658;2023-05-09T12:13:19;18.4;73.7
78731;SHT31;68055;51.978;5.658;2023-05-09T12:15:49;18.4;74.7
78731;SHT31;68055;51.978;5.658;2023-05-09T12:18:19;18.4;74.0
78731;SHT31;68055;51.978;5.658;2023-05-09T12:20:49;18.4;74.4
78731;SHT31;68055;51.978;5.658;2023-05-09T12:23:19;18.3;74.7
78731;SHT31;68055;51.978;5.658;2023-05-09T12:25:52;18.3;74.6
78731;SHT31;68055;51.978;5.658;2023-05-09T12:28:24;18.3;74.9
78731;SHT31;68055;51.978;5.658;2023-05-09T12:30:55;18.3;74.0
78731;SHT31;68055;51.978;5.658;2023-05-09T12:33:25;18.3;74.1
78731;SHT31;68055;51.978;5.658;2023-05-09T12:36:03;18.3;73.7
78731;SHT31;68055;51.978;5.658;2023-05-09T12:38:36;18.3;74.9
78731;SHT31;68055;51.978;5.658;2023-05-09T12:41:08;18.3;74.4
78731;SHT31;68055;51.978;5.658;2023-05-09T12:43:38;18.3;74.1
78731;SHT31;68055;51.978;5.658;2023-05-09T12:46:09;18.3;74.5
78731;SHT31;68055;51.978;5.658;2023-05-09T12:48:39;18.3;74.3
78731;SHT31;68055;51.978;5.658;2023-05-09T12:51:10;18.3;74.4
78731;SHT31;68055;51.978;5.658;2023-05-09T12:53:40;18.3;74.8
78731;SHT31;68055;51.978;5.658;2023-05-09T12:56:15;18.3;74.1
78731;SHT31;68055;51.978;5.658;2023-05-09T12:58:50;18.3;74.3
78731;SHT31;68055;51.978;5.658;2023-05-09T13:01:22;18.2;74.8
78731;SHT31;68055;51.978;5.658;2023-05-09T13:04:02;18.2;75.3
78731;SHT31;68055;51.978;5.658;2023-05-09T13:06:33;18.2;75.3
78731;SHT31;68055;51.978;5.658;2023-05-09T13:09:04;18.3;75.5
78731;SHT31;68055;51.978;5.658;2023-05-09T13:11:34;18.3;76.2
78731;SHT31;68055;51.978;5.658;2023-05-09T13:14:07;18.3;76.0
78731;SHT31;68055;51.978;5.658;2023-05-09T13:16:37;18.3;75.7
78731;SHT31;68055;51.978;5.658;2023-05-09T13:19:07;18.3;75.4
78731;SHT31;68055;51.978;5.658;2023-05-09T13:21:37;18.3;75.9
78731;SHT31;68055;51.978;5.658;2023-05-09T13:24:07;18.3;74.6
78731;SHT31;68055;51.978;5.658;2023-05-09T13:26:37;18.3;74.7
78731;SHT31;68055;51.978;5.658;2023-05-09T13:29:06;18.3;73.9
78731;SHT31;68055;51.978;5.658;2023-05-09T13:31:36;18.3;74.4
78731;SHT31;68055;51.978;5.658;2023-05-09T13:34:06;18.3;74.8
78731;SHT31;68055;51.978;5.658;2023-05-09T13:36:35;18.3;74.7
78731;SHT31;68055;51.978;5.658;2023-05-09T13:39:05;18.2;75.0
78731;SHT31;68055;51.978;5.658;2023-05-09T13:41:35;18.2;74.6
78731;SHT31;68055;51.978;5.658;2023-05-09T13:44:05;18.2;74.3
78731;SHT31;68055;51.978;5.658;2023-05-09T13:46:34;18.2;74.3
78731;SHT31;68055;51.978;5.658;2023-05-09T13:49:04;18.2;75.3
78731;SHT31;68055;51.978;5.658;2023-05-09T13:51:34;18.2;75.5
78731;SHT31;68055;51.978;5.658;2023-05-09T13:54:03;18.2;76.4
78731;SHT31;68055;51.978;5.658;2023-05-09T13:56:39;18.2;74.9
78731;SHT31;68055;51.978;5.658;2023-05-09T13:59:09;18.2;75.1
78731;SHT31;68055;51.978;5.658;2023-05-09T14:01:39;18.2;75.7
78731;SHT31;68055;51.978;5.658;2023-05-09T14:04:09;18.2;75.4
78731;SHT31;68055;51.978;5.658;2023-05-09T14:06:39;18.2;76.2
78731;SHT31;68055;51.978;5.658;2023-05-09T14:09:13;18.2;75.3
78731;SHT31;68055;51.978;5.658;2023-05-09T14:11:44;18.1;75.5
78731;SHT31;68055;51.978;5.658;2023-05-09T14:14:14;18.1;75.8
78731;SHT31;68055;51.978;5.658;2023-05-09T14:16:43;18.1;76.2
78731;SHT31;68055;51.978;5.658;2023-05-09T14:19:14;18.1;75.3
78731;SHT31;68055;51.978;5.658;2023-05-09T14:21:44;18.2;74.3
78731;SHT31;68055;51.978;5.658;2023-05-09T14:24:15;18.1;75.0
78731;SHT31;68055;51.978;5.658;2023-05-09T14:26:44;18.1;75.0
78731;SHT31;68055;51.978;5.658;2023-05-09T14:29:15;18.1;75.2
78731;SHT31;68055;51.978;5.658;2023-05-09T14:31:45;18.1;75.1
78731;SHT31;68055;51.978;5.658;2023-05-09T14:34:14;18.1;74.9
78731;SHT31;68055;51.978;5.658;2023-05-09T14:36:44;18.1;76.2
78731;SHT31;68055;51.978;5.658;2023-05-09T14:39:15;18.1;76.3
78731;SHT31;68055;51.978;5.658;2023-05-09T14:41:45;18.1;75.9
78731;SHT31;68055;51.978;5.658;2023-05-09T14:44:18;18.1;75.8
78731;SHT31;68055;51.978;5.658;2023-05-09T14:46:50;18.1;75.7
78731;SHT31;68055;51.978;5.658;2023-05-09T14:49:20;18.1;75.6
78731;SHT31;68055;51.978;5.658;2023-05-09T14:51:49;18.1;74.7
78731;SHT31;68055;51.978;5.658;2023-05-09T14:54:19;18.1;74.5
78731;SHT31;68055;51.978;5.658;2023-05-09T14:56:50;18.1;74.4
78731;SHT31;68055;51.978;5.658;2023-05-09T14:59:19;18.1;74.7
78731;SHT31;68055;51.978;5.658;2023-05-09T15:01:49;18.1;74.9
78731;SHT31;68055;51.978;5.658;2023-05-09T15:04:19;18.1;75.5
78731;SHT31;68055;51.978;5.658;2023-05-09T15:06:49;18.1;75.1
78731;SHT31;68055;51.978;5.658;2023-05-09T15:09:19;18.1;74.5
78731;SHT31;68055;51.978;5.658;2023-05-09T15:11:49;18.1;75.0
78731;SHT31;68055;51.978;5.658;2023-05-09T15:14:20;18.0;75.4
78731;SHT31;68055;51.978;5.658;2023-05-09T15:16:50;18.0;75.7
78731;SHT31;68055;51.978;5.658;2023-05-09T15:19:21;18.0;76.1
78731;SHT31;68055;51.978;5.658;2023-05-09T15:21:52;18.0;76.5
78731;SHT31;68055;51.978;5.658;2023-05-09T15:24:22;18.0;76.7
78731;SHT31;68055;51.978;5.658;2023-05-09T15:26:52;18.1;76.0
78731;SHT31;68055;51.978;5.658;2023-05-09T15:29:22;18.1;74.9
78731;SHT31;68055;51.978;5.658;2023-05-09T15:31:53;18.1;76.1
78731;SHT31;68055;51.978;5.658;2023-05-09T15:34:23;18.1;75.6
78731;SHT31;68055;51.978;5.658;2023-05-09T15:36:52;18.1;76.0
78731;SHT31;68055;51.978;5.658;2023-05-09T15:39:22;18.1;75.8
78731;SHT31;68055;51.978;5.658;2023-05-09T15:41:52;18.1;75.3
78731;SHT31;68055;51.978;5.658;2023-05-09T15:44:21;18.1;75.4
78731;SHT31;68055;51.978;5.658;2023-05-09T15:46:51;18.1;74.6
78731;SHT31;68055;51.978;5.658;2023-05-09T15:49:21;18.1;75.9
78731;SHT31;68055;51.978;5.658;2023-05-09T15:51:53;18.1;75.1
78731;SHT31;68055;51.978;5.658;2023-05-09T15:54:23;18.1;75.3
78731;SHT31;68055;51.978;5.658;2023-05-09T15:56:53;18.2;75.7
78731;SHT31;68055;51.978;5.658;2023-05-09T15:59:25;18.2;75.7
78731;SHT31;68055;51.978;5.658;2023-05-09T16:01:55;18.2;75.3
78731;SHT31;68055;51.978;5.658;2023-05-09T16:04:28;18.2;74.2
78731;SHT31;68055;51.978;5.658;2023-05-09T16:06:59;18.2;74.3
78731;SHT31;68055;51.978;5.658;2023-05-09T16:09:30;18.2;75.0
78731;SHT31;68055;51.978;5.658;2023-05-09T16:11:59;18.2;75.1
78731;SHT31;68055;51.978;5.658;2023-05-09T16:14:29;18.2;74.7
78731;SHT31;68055;51.978;5.658;2023-05-09T16:17:00;18.2;74.8
78731;SHT31;68055;51.978;5.658;2023-05-09T16:19:29;18.2;75.1
78731;SHT31;68055;51.978;5.658;2023-05-09T16:22:02;18.2;74.8
78731;SHT31;68055;51.978;5.658;2023-05-09T16:24:31;18.2;74.7
78731;SHT31;68055;51.978;5.658;2023-05-09T16:27:01;18.1;74.8